Time;durP1;ratioP1;P1;durP2;ratioP2;P2;SDS_P1;SDS_P2;PMS_P1;PMS_P2;Temp;Humidity;BMP_temperature;BMP_pressure;BME280_temperature;BME280_humidity;BME280_pressure;Samples;Min_cycle;Max_cycle;Signal;HPM_P1;HPM_P2
2021/05/02 05:21:28;;;;;;;27.70;21.25;;;;;;;5.79;77.32;96404.84;5944692;23;20428;-79
2021/05/02 05:23:55;;;;;;;22.35;19.27;;;;;;;5.80;77.80;96413.44;4992139;28;20086;-78
2021/05/02 05:26:22;;;;;;;26.88;21.08;;;;;;;5.81;77.54;96415.88;4980600;28;20058;-79
2021/05/02 05:28:49;;;;;;;24.52;20.08;;;;;;;5.83;77.55;96416.50;4979278;28;20031;-79
2021/05/02 05:31:16;;;;;;;26.48;21.40;;;;;;;5.84;77.13;96412.97;4978931;28;20047;-80
2021/05/02 05:33:43;;;;;;;25.67;20.70;;;;;;;5.87;77.44;96419.63;4978982;28;20027;-80
2021/05/02 05:36:10;;;;;;;28.77;22.27;;;;;;;5.88;77.69;96422.06;4979211;28;20035;-80
2021/05/02 05:38:38;;;;;;;30.42;21.70;;;;;;;5.91;77.67;96423.50;4979087;28;20047;-80
2021/05/02 05:41:05;;;;;;;28.10;22.30;;;;;;;5.94;77.60;96425.78;4988636;28;20042;-80
2021/05/02 05:43:36;;;;;;;24.85;21.25;;;;;;;5.95;77.52;96432.63;4980922;28;20053;-80
2021/05/02 05:46:03;;;;;;;28.67;22.02;;;;;;;5.96;77.83;96432.44;4979031;28;20039;-79
2021/05/02 05:48:33;;;;;;;26.63;21.27;;;;;;;5.97;77.49;96435.88;4979170;28;20041;-80
2021/05/02 05:51:00;;;;;;;25.50;21.60;;;;;;;5.97;77.31;96444.44;4979455;28;20066;-80
2021/05/02 05:53:27;;;;;;;24.15;21.52;;;;;;;5.98;76.98;96438.28;4984131;28;20031;-80
2021/05/02 05:55:57;;;;;;;27.33;22.25;;;;;;;6.00;77.17;96443.31;4988662;28;20031;-79
2021/05/02 05:58:26;;;;;;;27.92;21.35;;;;;;;6.03;77.37;96447.34;4984933;28;20035;-79
2021/05/02 06:00:54;;;;;;;29.17;22.73;;;;;;;6.05;77.68;96448.81;4998426;28;20068;-80
2021/05/02 06:03:21;;;;;;;26.77;21.48;;;;;;;6.08;77.54;96456.28;4998508;28;20038;-80
2021/05/02 06:05:48;;;;;;;28.63;21.55;;;;;;;6.09;77.47;96455.31;4998646;28;20031;-80
2021/05/02 06:08:15;;;;;;;28.30;22.48;;;;;;;6.09;77.52;96455.31;4998162;28;20030;-79
2021/05/02 06:10:42;;;;;;;27.50;21.45;;;;;;;6.09;77.28;96463.09;4998091;28;20098;-79
2021/05/02 06:13:10;;;;;;;26.25;22.83;;;;;;;6.07;77.00;96465.00;4997756;28;20050;-79
2021/05/02 06:15:37;;;;;;;26.55;22.50;;;;;;;6.07;77.03;96475.38;4998207;28;20051;-79
2021/05/02 06:18:12;;;;;;;28.23;22.05;;;;;;;6.07;77.10;96469.38;4998153;28;20039;-80
2021/05/02 06:20:39;;;;;;;24.70;21.23;;;;;;;6.07;76.89;96475.38;4997826;28;20031;-79
2021/05/02 06:23:06;;;;;;;27.83;22.30;;;;;;;6.09;77.11;96468.25;4997716;28;20054;-80
2021/05/02 06:25:33;;;;;;;26.02;22.15;;;;;;;6.14;77.20;96470.38;4984418;28;20074;-79
2021/05/02 06:28:00;;;;;;;29.35;23.42;;;;;;;6.21;77.09;96470.56;4983202;28;20034;-80
2021/05/02 06:30:28;;;;;;;25.75;21.95;;;;;;;6.30;76.89;96470.44;4984126;28;20342;-79
2021/05/02 06:32:55;;;;;;;26.65;22.85;;;;;;;6.38;76.73;96472.22;4978157;28;20038;-80
2021/05/02 06:35:22;;;;;;;26.30;21.80;;;;;;;6.45;76.15;96468.06;4977980;28;20039;-79
2021/05/02 06:37:50;;;;;;;31.50;22.83;;;;;;;6.52;76.06;96469.03;4975137;28;20047;-79
2021/05/02 06:40:21;;;;;;;24.83;21.23;;;;;;;6.58;75.98;96478.75;4978005;28;20054;-80
2021/05/02 06:42:48;;;;;;;26.30;21.77;;;;;;;6.64;76.05;96486.84;4979298;28;20103;-80
2021/05/02 06:45:16;;;;;;;26.17;21.23;;;;;;;6.66;75.37;96490.09;4982001;28;20035;-80
2021/05/02 06:47:45;;;;;;;24.60;20.75;;;;;;;6.61;75.13;96493.19;4981614;28;20051;-83
2021/05/02 06:50:14;;;;;;;25.98;21.38;;;;;;;6.60;75.08;96499.31;4981946;28;20067;-80
2021/05/02 06:52:42;;;;;;;24.75;21.20;;;;;;;6.60;75.54;96492.38;4982098;28;20034;-80
2021/05/02 06:55:10;;;;;;;24.42;21.13;;;;;;;6.64;75.37;96492.84;4982092;28;20067;-80
2021/05/02 06:57:38;;;;;;;22.42;20.00;;;;;;;6.68;74.91;96501.94;4982043;28;20034;-80
2021/05/02 07:00:06;;;;;;;22.05;18.30;;;;;;;6.71;75.13;96504.22;4981692;28;20031;-80
2021/05/02 07:02:33;;;;;;;24.60;20.20;;;;;;;6.75;75.04;96509.88;4981722;28;20051;-80
2021/05/02 07:05:01;;;;;;;23.38;19.05;;;;;;;6.84;74.96;96508.09;4981463;28;20031;-79
2021/05/02 07:07:28;;;;;;;26.83;22.23;;;;;;;6.95;75.34;96505.19;4981590;28;20091;-79
2021/05/02 07:09:55;;;;;;;24.80;20.02;;;;;;;7.08;75.43;96509.91;4981688;28;20054;-79
2021/05/02 07:12:23;;;;;;;26.40;21.40;;;;;;;7.23;74.59;96505.69;4981732;28;20031;-80
2021/05/02 07:14:56;;;;;;;26.45;21.55;;;;;;;7.36;74.40;96515.59;4981895;28;20099;-80
2021/05/02 07:17:34;;;;;;;;;;;;;;;7.51;73.79;96511.34;4981664;28;20046;-79
2021/05/02 07:20:01;;;;;;;22.92;19.73;;;;;;;7.56;72.95;96503.88;4980669;28;19923;-80
2021/05/02 07:22:30;;;;;;;27.98;21.10;;;;;;;7.61;73.35;96516.38;4979983;28;20078;-80
2021/05/02 07:24:57;;;;;;;24.05;21.35;;;;;;;7.62;72.92;96510.19;4965510;28;20068;-80
2021/05/02 07:27:24;;;;;;;26.00;21.13;;;;;;;7.68;72.85;96512.13;4985504;28;20070;-79
2021/05/02 07:29:51;;;;;;;26.48;20.88;;;;;;;7.75;72.82;96513.09;4980602;28;20103;-80
2021/05/02 07:32:18;;;;;;;24.17;20.60;;;;;;;7.81;72.31;96516.81;4978765;28;20050;-80
2021/05/02 07:34:45;;;;;;;25.55;20.67;;;;;;;7.83;71.35;96504.47;4980304;28;20052;-80
2021/05/02 07:37:13;;;;;;;24.38;20.40;;;;;;;7.82;71.79;96514.03;4979844;28;20071;-80
2021/05/02 07:39:40;;;;;;;26.52;22.55;;;;;;;7.82;71.57;96506.25;4979135;29;20043;-81
2021/05/02 07:42:08;;;;;;;26.38;21.83;;;;;;;7.85;71.86;96510.31;4979903;28;20067;-80
2021/05/02 08:28:34;;;;;;;19.93;16.77;;;;;;;9.36;65.95;96553.41;5739819;23;19923;-82
2021/05/02 08:31:01;;;;;;;19.95;17.30;;;;;;;9.43;65.72;96557.75;4944875;29;20123;-79
2021/05/02 08:33:28;;;;;;;23.27;17.35;;;;;;;9.40;65.37;96554.69;4959507;29;20047;-80
2021/05/02 08:35:55;;;;;;;19.77;17.20;;;;;;;9.36;65.21;96562.03;4970339;29;20061;-84
2021/05/02 08:38:21;;;;;;;19.63;17.65;;;;;;;9.40;65.78;96567.69;4970739;29;20058;-84
2021/05/02 08:40:48;;;;;;;19.83;17.73;;;;;;;9.53;64.53;96559.28;4970881;29;20079;-86
2021/05/02 08:43:18;;;;;;;20.50;18.13;;;;;;;9.75;64.81;96563.66;4970712;29;20051;-81
2021/05/02 08:45:45;;;;;;;20.58;17.35;;;;;;;9.89;64.02;96557.66;4970074;29;20053;-82
2021/05/02 08:48:12;;;;;;;19.92;17.90;;;;;;;9.96;64.02;96557.75;4970080;29;20102;-83
2021/05/02 08:50:39;;;;;;;20.13;17.48;;;;;;;9.91;63.28;96557.47;4969104;29;20053;-84
2021/05/02 08:53:06;;;;;;;24.38;20.45;;;;;;;9.72;64.36;96563.22;4973042;28;20031;-82
2021/05/02 08:55:32;;;;;;;23.02;20.52;;;;;;;9.45;64.64;96563.59;4976309;29;20086;-86
2021/05/02 08:57:59;;;;;;;23.30;20.90;;;;;;;9.31;65.89;96566.94;4976951;28;20061;-88
2021/05/02 09:00:26;;;;;;;25.70;21.98;;;;;;;9.19;66.83;96570.97;4973200;29;20055;-88
2021/05/02 09:02:55;;;;;;;25.38;22.67;;;;;;;9.05;66.69;96570.72;4970767;29;20071;-86
2021/05/02 09:05:22;;;;;;;28.50;23.77;;;;;;;8.95;67.38;96572.72;4969473;28;20059;-87
2021/05/02 09:07:49;;;;;;;26.13;22.38;;;;;;;8.87;67.77;96581.38;4969309;29;20080;-84
2021/05/02 09:10:18;;;;;;;25.65;22.02;;;;;;;8.85;67.24;96582.53;4974966;28;20054;-86
2021/05/02 09:12:58;;;;;;;26.02;23.33;;;;;;;8.88;68.12;96577.00;4976350;29;20119;-87
2021/05/02 09:15:29;;;;;;;30.20;23.83;;;;;;;8.92;67.66;96582.66;4971382;29;20066;-87
2021/05/02 09:18:00;;;;;;;25.05;22.05;;;;;;;9.05;68.00;96593.31;4968971;29;20516;-84
2021/05/02 09:20:41;;;;;;;23.63;21.15;;;;;;;9.19;66.96;96587.38;4968979;29;20537;-84
2021/05/02 09:23:08;;;;;;;24.73;22.15;;;;;;;9.28;66.61;96578.53;4968911;29;20134;-87
2021/05/02 09:25:50;;;;;;;25.00;22.30;;;;;;;9.29;65.32;96584.53;4968827;29;20056;-85
2021/05/02 09:28:42;;;;;;;26.00;21.50;;;;;;;9.36;65.37;96585.47;4968592;29;20062;-83
2021/05/02 09:31:10;;;;;;;24.42;21.83;;;;;;;9.53;65.86;96585.34;4968474;28;20047;-84
2021/05/02 09:33:38;;;;;;;25.80;21.77;;;;;;;9.67;64.60;96589.78;4948627;29;20062;-85
2021/05/02 09:36:07;;;;;;;24.13;20.70;;;;;;;9.81;64.08;96601.22;4948627;29;20414;-83
2021/05/02 09:38:34;;;;;;;25.58;22.70;;;;;;;9.90;63.50;96598.38;4947279;29;20430;-81
2021/05/02 09:41:02;;;;;;;25.23;22.45;;;;;;;9.94;62.89;96593.59;4948007;29;20043;-83
2021/05/02 09:43:41;;;;;;;22.33;19.77;;;;;;;9.97;61.89;96605.44;4947370;29;20052;-85
2021/05/02 09:46:27;;;;;;;22.70;20.25;;;;;;;10.15;62.32;96603.34;4947089;29;20514;-81
2021/05/02 09:49:16;;;;;;;21.05;18.73;;;;;;;10.52;61.47;96602.47;4947255;29;20079;-83
2021/05/02 09:51:50;;;;;;;22.70;20.30;;;;;;;10.81;60.17;96606.03;4945527;29;20094;-80
2021/05/02 09:54:19;;;;;;;22.40;19.08;;;;;;;11.16;60.12;96600.19;4943274;29;20104;-79
2021/05/02 09:56:50;;;;;;;22.45;17.65;;;;;;;11.42;58.05;96605.66;4943631;29;20060;-80
2021/05/02 09:59:25;;;;;;;20.83;18.13;;;;;;;11.66;56.63;96603.66;4943166;29;20062;-80
2021/05/02 10:02:27;;;;;;;23.08;18.92;;;;;;;11.87;54.28;96600.22;4942622;29;20058;-82
2021/05/02 10:04:57;;;;;;;19.58;17.48;;;;;;;11.75;55.49;96603.34;4942215;29;20111;-81
2021/05/02 10:07:26;;;;;;;20.85;18.52;;;;;;;11.44;54.57;96608.91;4943258;29;20098;-83
2021/05/02 10:09:53;;;;;;;19.40;17.13;;;;;;;11.20;55.93;96604.84;4942862;29;20051;-83
2021/05/02 10:12:21;;;;;;;22.25;18.95;;;;;;;11.03;56.24;96612.09;4942677;29;20062;-82
2021/05/02 10:14:50;;;;;;;21.02;18.80;;;;;;;10.92;57.05;96617.78;4942864;29;20047;-81
2021/05/02 10:17:17;;;;;;;19.77;17.60;;;;;;;10.81;57.87;96611.25;4942952;29;20079;-84
2021/05/02 10:19:45;;;;;;;19.08;17.17;;;;;;;10.75;57.31;96616.38;4947850;29;20083;-82
2021/05/02 10:22:12;;;;;;;20.08;18.00;;;;;;;10.66;57.07;96607.84;4949327;29;20138;-84
2021/05/02 10:24:40;;;;;;;21.98;19.73;;;;;;;10.60;58.54;96619.00;4949271;29;20052;-85
2021/05/02 10:27:10;;;;;;;21.95;19.65;;;;;;;10.50;59.05;96619.28;4947430;29;20044;-81
2021/05/02 10:29:40;;;;;;;21.77;19.30;;;;;;;10.43;59.29;96611.38;4948333;29;20080;-81
2021/05/02 10:32:09;;;;;;;21.55;19.25;;;;;;;10.37;58.42;96625.13;4959748;28;20102;-82
2021/05/02 10:34:39;;;;;;;20.10;18.10;;;;;;;10.31;58.73;96621.44;4970891;29;20051;-84
2021/05/02 10:37:36;;;;;;;20.80;18.63;;;;;;;10.28;58.44;96626.97;4970600;29;20065;-82
2021/05/02 10:40:24;;;;;;;21.00;17.77;;;;;;;10.22;58.98;96630.31;4970899;28;20051;-79
2021/05/02 10:42:51;;;;;;;19.52;17.52;;;;;;;10.15;59.52;96633.81;4970522;29;20051;-81
2021/05/02 10:45:51;;;;;;;19.70;17.45;;;;;;;10.05;59.72;96626.22;4970702;29;20051;-83
2021/05/02 10:48:45;;;;;;;21.95;18.90;;;;;;;10.02;59.54;96622.19;4972227;28;20055;-82
2021/05/02 10:51:31;;;;;;;19.63;17.52;;;;;;;10.04;59.74;96632.44;4971554;29;20058;-80
2021/05/02 10:54:08;;;;;;;20.60;18.40;;;;;;;10.10;61.10;96627.34;4971016;29;20051;-78
2021/05/02 10:56:45;;;;;;;22.13;19.00;;;;;;;10.19;59.91;96628.06;4970331;29;20126;-79
2021/05/02 10:59:14;;;;;;;21.05;18.95;;;;;;;10.43;59.91;96632.25;4970377;28;20093;-82
2021/05/02 11:01:41;;;;;;;19.27;17.25;;;;;;;10.74;59.43;96630.44;4969059;29;20048;-79
2021/05/02 11:04:09;;;;;;;19.90;17.98;;;;;;;10.86;58.26;96621.13;4969081;29;20051;-82
2021/05/02 11:06:53;;;;;;;20.60;18.40;;;;;;;10.87;57.00;96630.59;4968406;29;20047;-79
2021/05/02 11:09:23;;;;;;;18.83;16.90;;;;;;;10.82;57.13;96635.53;4968418;28;20066;-79
2021/05/02 11:11:56;;;;;;;19.25;17.38;;;;;;;10.79;57.98;96633.28;4967413;29;20051;-81
2021/05/02 11:14:36;;;;;;;18.95;17.00;;;;;;;10.80;59.58;96640.13;4967902;29;20047;-81
2021/05/02 11:17:24;;;;;;;19.85;17.88;;;;;;;10.74;57.51;96635.66;4968154;29;20078;-81
2021/05/02 11:19:53;;;;;;;18.83;16.83;;;;;;;10.67;58.35;96638.16;4967413;28;20055;-79
2021/05/02 11:22:21;;;;;;;18.92;17.05;;;;;;;10.65;59.07;96637.53;4966764;29;20047;-78
2021/05/02 11:25:02;;;;;;;21.48;17.70;;;;;;;10.66;58.17;96639.94;4966380;29;20482;-81
2021/05/02 11:28:02;;;;;;;20.42;18.25;;;;;;;10.67;59.42;96638.97;4967849;29;20123;-79
2021/05/02 11:30:31;;;;;;;19.80;17.80;;;;;;;10.77;59.57;96627.44;4966271;29;20058;-78
2021/05/02 11:32:59;;;;;;;19.83;17.83;;;;;;;10.98;57.56;96627.50;4962447;28;20054;-80
2021/05/02 11:35:40;;;;;;;18.88;16.98;;;;;;;11.22;56.87;96623.75;4963991;29;20051;-79
2021/05/02 11:38:07;;;;;;;19.30;17.30;;;;;;;11.44;57.29;96618.56;4963269;28;20066;-81
2021/05/02 11:40:40;;;;;;;19.58;16.67;;;;;;;11.62;58.87;96618.09;4962295;29;20051;-79
2021/05/02 11:43:11;;;;;;;20.17;17.33;;;;;;;11.80;56.02;96609.81;4963036;29;20051;-83
2021/05/02 11:45:44;;;;;;;17.30;15.43;;;;;;;11.94;51.49;96607.16;4959463;28;20048;-80
2021/05/02 11:48:17;;;;;;;18.00;16.20;;;;;;;12.11;53.26;96612.91;4947601;29;20158;-83
2021/05/02 11:50:44;;;;;;;17.05;14.63;;;;;;;12.18;52.30;96615.56;4961153;29;20055;-82
2021/05/02 11:53:11;;;;;;;15.50;13.88;;;;;;;12.17;53.53;96606.09;4965978;29;20058;-82
2021/05/02 11:55:40;;;;;;;18.33;16.42;;;;;;;12.12;52.56;96608.47;4966392;29;20043;-80
2021/05/02 11:58:10;;;;;;;17.27;15.48;;;;;;;12.03;52.99;96610.44;4965108;29;20047;-78
2021/05/02 12:00:39;;;;;;;17.63;15.70;;;;;;;11.97;52.00;96608.56;4965214;29;20051;-80
2021/05/02 12:03:07;;;;;;;17.63;15.80;;;;;;;11.92;51.49;96600.50;4964327;29;20054;-81
2021/05/02 12:05:33;;;;;;;17.63;15.75;;;;;;;11.81;51.99;96601.78;4964176;29;20114;-81
2021/05/02 12:08:07;;;;;;;17.58;15.82;;;;;;;11.79;52.90;96602.97;4964389;29;20047;-79
2021/05/02 12:10:34;;;;;;;17.77;16.08;;;;;;;11.84;53.80;96601.41;4964984;29;20065;-78
2021/05/02 12:13:01;;;;;;;18.25;16.08;;;;;;;12.02;54.48;96610.59;4963797;29;20051;-80
2021/05/02 12:15:28;;;;;;;16.95;15.27;;;;;;;12.21;52.29;96614.38;4963997;29;20051;-80
2021/05/02 12:17:55;;;;;;;17.92;16.17;;;;;;;12.43;52.17;96604.63;4965283;28;20497;-80
2021/05/02 12:20:22;;;;;;;17.15;15.50;;;;;;;12.60;53.93;96608.53;4963023;29;20055;-77
2021/05/02 12:22:49;;;;;;;18.13;16.33;;;;;;;12.69;53.00;96610.00;4967098;29;20059;-79
2021/05/02 12:25:16;;;;;;;17.67;15.85;;;;;;;12.68;51.78;96612.78;4966505;29;20110;-82
2021/05/02 12:27:58;;;;;;;18.52;15.70;;;;;;;12.66;50.43;96618.25;4966489;29;20406;-82
2021/05/02 12:30:25;;;;;;;17.17;15.38;;;;;;;12.68;51.07;96616.25;4965209;29;20055;-84
2021/05/02 12:32:55;;;;;;;19.38;17.48;;;;;;;12.71;50.90;96621.06;4953163;28;20048;-88
2021/05/02 12:35:22;;;;;;;17.60;15.75;;;;;;;12.66;51.97;96620.03;4947237;29;20051;-86
2021/05/02 12:37:49;;;;;;;17.67;15.80;;;;;;;12.54;52.07;96628.44;4947985;29;20065;-85
2021/05/02 12:40:16;;;;;;;14.60;13.20;;;;;;;12.31;51.60;96630.50;4946549;29;20450;-87
2021/05/02 12:42:42;;;;;;;15.75;13.48;;;;;;;12.04;51.83;96637.38;4946462;29;20071;-84
2021/05/02 12:45:13;;;;;;;15.38;13.88;;;;;;;11.76;52.93;96643.34;4945990;29;20107;-85
2021/05/02 12:47:47;;;;;;;15.88;13.43;;;;;;;11.52;53.04;96644.53;4961263;28;20478;-85
2021/05/02 12:50:15;;;;;;;16.02;14.30;;;;;;;11.28;53.16;96661.34;4967160;28;20122;-86
2021/05/02 12:52:43;;;;;;;14.63;13.25;;;;;;;11.08;53.80;96663.75;4975305;28;20073;-85
2021/05/02 12:55:18;;;;;;;15.60;14.02;;;;;;;10.94;53.93;96673.22;4961557;28;20062;-87
2021/05/02 12:57:48;;;;;;;15.20;13.68;;;;;;;10.79;53.10;96678.47;4957704;29;20054;-87
2021/05/02 13:00:18;;;;;;;14.85;13.45;;;;;;;10.57;53.50;96685.38;4960845;28;20111;-87
2021/05/02 13:02:46;;;;;;;16.58;14.88;;;;;;;10.41;53.40;96688.19;4952809;29;20044;-85
2021/05/02 13:05:16;;;;;;;18.63;16.65;;;;;;;10.21;54.89;96696.47;4950684;29;20495;-87
2021/05/02 13:07:46;;;;;;;16.73;15.13;;;;;;;10.03;55.85;96688.94;4950809;29;20058;-84
2021/05/02 13:10:29;;;;;;;17.55;15.77;;;;;;;9.91;56.45;96677.34;4949734;29;20079;-86
2021/05/02 13:12:57;;;;;;;17.75;15.95;;;;;;;9.87;57.35;96671.66;4955617;29;20058;-88
2021/05/02 13:15:26;;;;;;;18.50;16.60;;;;;;;10.02;59.65;96669.09;4968029;29;20422;-84
2021/05/02 13:18:09;;;;;;;18.10;14.82;;;;;;;10.26;58.88;96665.47;4958205;28;20060;-87
2021/05/02 13:20:57;;;;;;;15.00;13.23;;;;;;;10.50;57.27;96663.63;4960004;29;20066;-85
2021/05/02 13:26:10;;;;;;;16.85;14.88;;;;;;;10.77;56.61;96661.38;4976583;28;20038;-85
2021/05/02 13:28:38;;;;;;;16.17;14.48;;;;;;;10.89;57.30;96657.31;4981261;28;20051;-86
2021/05/02 13:31:05;;;;;;;16.05;14.32;;;;;;;10.98;56.66;96655.41;4983008;28;20070;-84
2021/05/02 13:33:32;;;;;;;15.88;14.27;;;;;;;10.86;56.68;96655.84;4982089;28;20047;-83
2021/05/02 13:36:00;;;;;;;15.70;14.10;;;;;;;10.79;57.62;96659.38;4979315;28;20118;-88
2021/05/02 13:38:26;;;;;;;13.82;12.50;;;;;;;10.74;56.51;96646.88;4974498;28;20048;-88
2021/05/02 13:40:53;;;;;;;15.57;14.07;;;;;;;10.80;58.99;96655.78;4980790;28;20086;-84
2021/05/02 13:43:20;;;;;;;15.45;14.05;;;;;;;10.87;57.19;96641.03;4978741;28;20035;-86
2021/05/02 13:45:47;;;;;;;13.82;12.55;;;;;;;10.89;56.52;96649.50;4981917;28;20065;-87
2021/05/02 13:48:14;;;;;;;16.75;15.15;;;;;;;10.95;57.67;96653.16;4983563;28;20074;-85
2021/05/02 13:50:42;;;;;;;15.80;14.30;;;;;;;11.01;57.48;96653.22;4977144;28;20162;-83
2021/05/02 13:53:10;;;;;;;16.45;14.77;;;;;;;11.07;58.63;96646.47;4978530;28;20112;-85
2021/05/02 13:55:37;;;;;;;16.13;14.50;;;;;;;11.12;56.70;96644.13;4975232;28;20057;-88
2021/05/02 13:58:06;;;;;;;16.10;14.40;;;;;;;11.09;57.68;96645.31;4974038;28;20166;-80
2021/05/02 14:00:53;;;;;;;16.20;14.60;;;;;;;11.07;57.69;96639.44;4974252;28;20176;-81
2021/05/02 14:03:19;;;;;;;15.82;13.43;;;;;;;11.08;57.00;96632.41;4979230;28;20054;-86
2021/05/02 14:05:46;;;;;;;14.95;13.38;;;;;;;11.14;57.70;96637.72;4980143;28;20415;-85
2021/05/02 14:08:14;;;;;;;16.02;14.43;;;;;;;11.29;57.22;96642.09;4971793;28;20047;-82
2021/05/02 14:10:49;;;;;;;14.27;12.98;;;;;;;11.46;57.54;96640.88;4967718;29;20505;-86
2021/05/02 14:13:17;;;;;;;12.00;10.80;;;;;;;11.55;54.21;96631.91;4978613;28;20058;-86
2021/05/02 14:15:51;;;;;;;13.10;10.60;;;;;;;11.67;53.95;96626.19;4986310;28;20118;-85
2021/05/02 14:18:30;;;;;;;13.45;12.05;;;;;;;11.81;54.43;96629.72;4987532;28;20050;-90
2021/05/02 14:21:03;;;;;;;14.63;13.20;;;;;;;11.82;54.38;96629.53;4987569;28;20055;-90
2021/05/02 14:23:42;;;;;;;14.65;13.15;;;;;;;11.79;53.79;96640.38;4985918;28;20497;-87
2021/05/02 14:26:13;;;;;;;13.32;12.02;;;;;;;11.76;52.83;96635.50;4986185;28;20133;-89
2021/05/02 14:28:45;;;;;;;13.60;12.10;;;;;;;11.72;53.13;96623.84;4986076;28;20051;-86
2021/05/02 14:31:15;;;;;;;12.82;11.63;;;;;;;11.65;53.13;96646.47;4987685;28;20053;-88
2021/05/02 14:33:48;;;;;;;12.60;11.40;;;;;;;11.59;52.84;96644.59;4986434;28;20055;-91
2021/05/02 14:36:31;;;;;;;13.77;12.45;;;;;;;11.49;53.47;96653.53;4987856;28;20055;-88
2021/05/02 14:39:09;;;;;;;14.85;12.35;;;;;;;11.38;54.64;96669.72;4986154;28;20059;-90
2021/05/02 14:41:46;;;;;;;13.40;11.88;;;;;;;11.20;54.63;96666.72;4985743;28;20303;-84
2021/05/02 14:44:18;;;;;;;12.38;11.07;;;;;;;11.05;54.19;96675.38;4986253;28;20050;-84
2021/05/02 14:47:00;;;;;;;11.95;10.73;;;;;;;10.90;55.59;96666.75;4989900;28;20145;-84
2021/05/02 14:49:34;;;;;;;11.98;10.77;;;;;;;10.79;55.67;96664.59;4986700;28;20078;-86
2021/05/02 14:52:16;;;;;;;11.85;10.65;;;;;;;10.75;55.79;96668.56;4985173;28;20066;-88
2021/05/02 14:54:51;;;;;;;11.93;10.73;;;;;;;10.69;55.79;96676.13;4985092;28;20141;-87
2021/05/02 14:57:30;;;;;;;11.45;10.25;;;;;;;10.64;55.63;96670.63;4986606;28;20111;-86
2021/05/02 15:00:03;;;;;;;11.57;10.38;;;;;;;10.70;58.29;96672.53;4985716;28;20060;-89
2021/05/02 15:02:42;;;;;;;11.02;9.93;;;;;;;10.76;55.72;96664.94;4985357;28;20106;-84
2021/05/02 15:05:30;;;;;;;11.35;10.18;;;;;;;10.80;54.87;96661.00;4972193;28;20051;-83
2021/05/02 15:07:59;;;;;;;12.25;11.05;;;;;;;10.87;55.61;96667.94;4965861;29;20074;-87
2021/05/02 15:10:38;;;;;;;11.60;10.35;;;;;;;10.94;55.23;96662.78;4965292;29;20051;-88
2021/05/02 15:13:14;;;;;;;10.10;9.05;;;;;;;10.96;55.60;96660.81;4978436;28;20101;-83
2021/05/02 15:15:58;;;;;;;7.22;5.85;;;;;;;10.99;54.77;96670.88;4984708;28;20054;-84
2021/05/02 15:18:27;;;;;;;6.22;5.63;;;;;;;11.04;54.30;96670.31;4964541;29;20059;-85
2021/05/02 15:20:54;;;;;;;5.43;4.93;;;;;;;11.07;51.89;96665.56;4964160;28;20082;-80
2021/05/02 15:23:26;;;;;;;5.20;4.80;;;;;;;11.08;51.91;96669.78;4963790;29;20417;-85
2021/05/02 15:25:54;;;;;;;4.97;4.57;;;;;;;11.05;50.56;96667.53;4964699;29;20066;-82
2021/05/02 15:28:21;;;;;;;6.05;5.43;;;;;;;11.04;50.76;96676.38;4965253;29;20531;-81
2021/05/02 15:30:49;;;;;;;6.93;6.22;;;;;;;10.99;50.70;96681.31;4965314;29;20115;-81
2021/05/02 15:33:18;;;;;;;7.25;6.55;;;;;;;10.96;51.67;96686.91;4984188;28;20055;-87
2021/05/02 15:35:46;;;;;;;8.00;7.20;;;;;;;10.97;52.79;96678.06;4983996;28;20050;-84
2021/05/02 15:38:17;;;;;;;8.25;7.45;;;;;;;10.95;52.56;96682.66;4983264;28;20078;-86
2021/05/02 15:40:45;;;;;;;9.27;7.65;;;;;;;10.92;52.76;96683.84;4984330;28;20514;-86
2021/05/02 15:43:14;;;;;;;8.13;7.32;;;;;;;10.91;52.71;96684.84;4985904;28;20054;-89
2021/05/02 15:45:41;;;;;;;9.00;8.02;;;;;;;10.87;53.31;96677.56;4985964;28;20071;-83
2021/05/02 15:48:09;;;;;;;8.90;7.45;;;;;;;10.88;53.83;96684.38;4985879;28;20086;-84
2021/05/02 15:50:36;;;;;;;8.70;7.82;;;;;;;10.89;52.74;96683.41;4986964;28;20122;-85
2021/05/02 15:53:03;;;;;;;9.27;8.27;;;;;;;10.91;54.11;96691.84;4985890;28;20483;-84
2021/05/02 15:55:30;;;;;;;7.93;7.18;;;;;;;10.84;51.75;96685.75;4986392;28;20050;-82
2021/05/02 15:57:56;;;;;;;8.63;7.72;;;;;;;10.71;51.52;96684.59;4985690;28;20054;-89
2021/05/02 16:00:24;;;;;;;9.00;7.28;;;;;;;10.61;53.91;96678.81;4986023;28;20046;-84
2021/05/02 16:02:51;;;;;;;7.82;7.00;;;;;;;10.54;53.17;96680.53;4984901;28;20448;-83
2021/05/02 16:05:19;;;;;;;7.22;6.63;;;;;;;10.47;52.01;96682.22;4984383;28;20106;-87
2021/05/02 16:07:46;;;;;;;8.40;7.28;;;;;;;10.43;53.45;96686.16;4985073;28;20069;-90
2021/05/02 16:10:14;;;;;;;8.18;7.38;;;;;;;10.43;53.58;96691.38;4984354;28;20078;-84
2021/05/02 16:12:42;;;;;;;8.70;7.78;;;;;;;10.40;54.35;96681.31;4983241;28;20051;-87
2021/05/02 16:15:09;;;;;;;7.32;6.63;;;;;;;10.40;54.11;96684.75;4978430;28;20644;-81
2021/05/02 16:17:37;;;;;;;6.13;5.53;;;;;;;10.40;52.38;96679.53;4964581;29;20062;-86
2021/05/02 16:20:06;;;;;;;5.40;4.90;;;;;;;10.37;51.63;96692.13;4963630;29;20055;-83
2021/05/02 16:22:33;;;;;;;7.95;4.95;;;;;;;10.38;52.32;96688.50;4964721;29;20055;-89
2021/05/02 16:24:59;;;;;;;5.32;4.82;;;;;;;10.41;52.08;96688.19;4963699;29;20047;-81
2021/05/02 16:27:27;;;;;;;5.68;5.15;;;;;;;10.42;51.80;96687.19;4963702;29;20058;-90
2021/05/02 16:29:55;;;;;;;5.25;4.75;;;;;;;10.44;51.71;96690.41;4963562;29;20137;-84
2021/05/02 16:32:22;;;;;;;5.03;4.50;;;;;;;10.46;52.12;96691.84;4976394;28;20517;-83
2021/05/02 16:35:10;;;;;;;6.13;5.53;;;;;;;10.51;50.85;96689.50;4981266;28;20530;-80
2021/05/02 16:37:38;;;;;;;5.85;4.63;;;;;;;10.54;50.63;96688.38;4983788;28;20054;-84
2021/05/02 16:40:06;;;;;;;5.22;4.80;;;;;;;10.55;50.28;96689.97;4988911;28;20110;-88
2021/05/02 16:42:34;;;;;;;6.40;5.80;;;;;;;10.54;51.75;96688.38;4980860;28;20039;-87
2021/05/02 16:45:03;;;;;;;5.93;5.32;;;;;;;10.51;51.27;96691.31;4971322;28;20520;-87
2021/05/02 16:47:31;;;;;;;6.05;5.53;;;;;;;10.45;52.11;96694.63;4965711;29;20088;-83
2021/05/02 16:49:58;;;;;;;6.30;5.68;;;;;;;10.40;52.17;96691.75;4965876;29;20043;-86
2021/05/02 16:52:26;;;;;;;6.60;5.97;;;;;;;10.35;52.38;96688.88;4965392;29;20642;-86
2021/05/02 16:54:54;;;;;;;7.88;5.95;;;;;;;10.31;52.92;96696.25;4965326;29;20051;-86
2021/05/02 16:57:21;;;;;;;6.00;5.50;;;;;;;10.26;52.14;96698.56;4965390;29;20055;-87
2021/05/02 16:59:48;;;;;;;5.80;5.30;;;;;;;10.24;53.20;96697.91;4965916;29;20071;-82
2021/05/02 17:02:16;;;;;;;5.20;4.80;;;;;;;10.22;53.21;96690.25;4978907;28;20047;-85
2021/05/02 17:04:44;;;;;;;4.95;4.45;;;;;;;10.21;52.45;96699.09;4976409;28;20051;-84
2021/05/02 17:07:13;;;;;;;5.90;5.40;;;;;;;10.21;53.67;96698.25;4966292;28;20061;-85
2021/05/02 17:09:43;;;;;;;4.85;4.43;;;;;;;10.21;52.64;96709.50;4964396;29;20055;-82
2021/05/02 17:12:10;;;;;;;6.22;5.63;;;;;;;10.22;52.92;96703.28;4967458;28;20425;-84
2021/05/02 17:14:41;;;;;;;6.93;5.63;;;;;;;10.20;52.36;96710.47;4984940;28;20694;-84
2021/05/02 17:17:08;;;;;;;6.80;6.10;;;;;;;10.17;51.28;96713.44;4984698;28;20054;-84
2021/05/02 17:19:39;;;;;;;7.50;6.15;;;;;;;10.12;50.97;96715.75;4983823;28;20087;-83
2021/05/02 17:22:09;;;;;;;6.07;5.53;;;;;;;10.10;52.30;96720.34;4970597;28;20058;-87
2021/05/02 17:24:40;;;;;;;6.15;5.55;;;;;;;10.05;51.34;96722.66;4963157;29;20074;-84
2021/05/02 17:27:08;;;;;;;6.40;5.68;;;;;;;10.01;52.02;96721.38;4963435;28;20055;-87
2021/05/02 17:29:43;;;;;;;8.73;7.00;;;;;;;9.97;53.07;96727.94;4964937;29;20086;-88
2021/05/02 17:32:18;;;;;;;8.98;6.85;;;;;;;9.92;52.78;96717.22;4973228;28;20071;-88
2021/05/02 17:34:45;;;;;;;7.63;6.80;;;;;;;9.89;54.44;96723.59;4972228;28;20048;-88
2021/05/02 17:37:12;;;;;;;7.97;7.03;;;;;;;9.85;54.30;96728.34;4977736;28;20114;-87
2021/05/02 17:39:40;;;;;;;6.75;6.03;;;;;;;9.79;54.21;96739.44;4987897;28;20058;-89
2021/05/02 17:42:08;;;;;;;7.57;6.88;;;;;;;9.75;54.90;96746.03;4987323;28;20143;-86
2021/05/02 17:44:34;;;;;;;7.13;6.50;;;;;;;9.74;55.33;96749.59;4987145;28;20050;-86
2021/05/02 17:47:02;;;;;;;8.60;7.15;;;;;;;9.73;55.89;96742.78;4986837;28;20058;-88